Time;durP1;ratioP1;P1;durP2;ratioP2;P2;SDS_P1;SDS_P2;PMS_P1;PMS_P2;Temp;Humidity;BMP_temperature;BMP_pressure;BME280_temperature;BME280_humidity;BME280_pressure;Samples;Min_cycle;Max_cycle;Signal;HPM_P1;HPM_P2
2021/07/07 00:01:10;;;;;;;5.55;4.12;;;;;;;22.68;100.00;98885.09;1750729;81;20963;-66
2021/07/07 00:03:40;;;;;;;6.50;4.00;;;;;;;22.66;100.00;98884.31;1760570;81;21906;-66
2021/07/07 00:06:09;;;;;;;4.75;3.70;;;;;;;22.61;100.00;98882.77;1754919;81;21426;-66
2021/07/07 00:08:37;;;;;;;4.78;3.42;;;;;;;22.60;100.00;98892.27;1756002;81;21454;-66
2021/07/07 00:11:06;;;;;;;6.25;3.27;;;;;;;22.59;100.00;98882.47;1747950;80;21430;-67
2021/07/07 00:13:34;;;;;;;4.15;3.52;;;;;;;22.59;100.00;98886.02;1751300;80;20878;-64
2021/07/07 00:16:05;;;;;;;4.65;3.60;;;;;;;22.56;100.00;98882.17;1756857;81;21474;-64
2021/07/07 00:18:34;;;;;;;6.70;3.25;;;;;;;22.54;100.00;98885.43;1754199;81;20888;-64
2021/07/07 00:21:03;;;;;;;5.37;3.22;;;;;;;22.51;100.00;98886.95;1750574;81;20944;-65
2021/07/07 00:23:31;;;;;;;4.15;3.37;;;;;;;22.51;100.00;98890.98;1754115;81;20956;-67
2021/07/07 00:25:59;;;;;;;4.47;3.80;;;;;;;22.50;100.00;98893.29;1758156;81;20903;-65
2021/07/07 00:28:28;;;;;;;6.12;3.60;;;;;;;22.48;100.00;98894.33;1759747;81;21507;-64
2021/07/07 00:30:58;;;;;;;5.62;3.58;;;;;;;22.47;100.00;98892.12;1774159;78;20994;-65
2021/07/07 00:33:28;;;;;;;4.33;3.60;;;;;;;22.47;100.00;98891.26;1755307;81;21006;-65
2021/07/07 00:35:58;;;;;;;7.50;3.62;;;;;;;22.47;100.00;98885.41;1781402;78;20982;-66
2021/07/07 00:38:26;;;;;;;5.45;3.75;;;;;;;22.46;100.00;98895.77;1752929;81;20994;-67
2021/07/07 00:40:58;;;;;;;7.35;4.37;;;;;;;22.46;100.00;98889.05;1730437;82;21472;-67
2021/07/07 00:43:27;;;;;;;6.40;3.42;;;;;;;22.46;100.00;98893.56;1742489;81;20987;-65
2021/07/07 00:45:56;;;;;;;4.87;3.72;;;;;;;22.45;100.00;98891.34;1739481;81;21560;-66
2021/07/07 00:48:25;;;;;;;5.60;3.70;;;;;;;22.46;100.00;98889.05;1754497;81;21375;-64
2021/07/07 00:50:54;;;;;;;5.75;4.00;;;;;;;22.46;100.00;98888.18;1746721;81;21461;-65
2021/07/07 00:53:23;;;;;;;5.67;4.10;;;;;;;22.45;100.00;98897.20;1727922;81;21072;-65
2021/07/07 00:55:54;;;;;;;8.23;3.77;;;;;;;22.43;100.00;98898.63;1760226;81;21450;-64
2021/07/07 00:58:23;;;;;;;5.90;3.60;;;;;;;22.43;100.00;98895.95;1716603;81;21423;-64
2021/07/07 01:00:53;;;;;;;7.08;4.33;;;;;;;22.41;100.00;98895.65;1753408;81;21427;-65
2021/07/07 01:03:26;;;;;;;6.47;3.85;;;;;;;22.41;100.00;98894.30;1750452;81;20916;-65
2021/07/07 01:05:56;;;;;;;7.12;4.37;;;;;;;22.41;100.00;98895.65;1750262;81;21462;-65
2021/07/07 01:08:27;;;;;;;9.20;4.00;;;;;;;22.39;100.00;98897.08;1759094;81;21391;-65
2021/07/07 01:10:58;;;;;;;7.35;4.22;;;;;;;22.38;100.00;98893.14;1760199;81;20927;-65
2021/07/07 01:13:29;;;;;;;6.20;3.70;;;;;;;22.39;100.00;98901.11;1760594;81;21917;-64
2021/07/07 01:16:00;;;;;;;8.85;4.17;;;;;;;22.40;100.00;98903.33;1759907;81;21034;-65
2021/07/07 01:18:30;;;;;;;5.70;4.03;;;;;;;22.40;100.00;98901.50;1736682;81;20900;-65
2021/07/07 01:21:00;;;;;;;5.55;3.77;;;;;;;22.41;100.00;98907.74;1751468;81;20955;-65
2021/07/07 01:23:29;;;;;;;5.70;4.00;;;;;;;22.42;100.00;98916.19;1745486;81;20968;-65
2021/07/07 01:25:58;;;;;;;7.67;3.85;;;;;;;22.43;100.00;98913.42;1743196;82;21430;-65
2021/07/07 01:28:28;;;;;;;4.47;4.10;;;;;;;22.45;100.00;98913.33;1744226;81;20888;-65
2021/07/07 01:30:57;;;;;;;5.17;3.90;;;;;;;22.47;100.00;98921.69;1746063;81;21099;-65
2021/07/07 01:33:26;;;;;;;4.55;4.00;;;;;;;22.47;100.00;98914.11;1754530;81;21509;-65
2021/07/07 01:35:56;;;;;;;4.15;3.77;;;;;;;22.48;100.00;98915.84;1786585;78;21351;-65
2021/07/07 01:38:25;;;;;;;5.22;4.08;;;;;;;22.49;100.00;98920.26;1746788;82;20919;-65
2021/07/07 01:40:59;;;;;;;5.08;4.00;;;;;;;22.50;100.00;98930.05;1766364;81;21422;-65
2021/07/07 01:43:29;;;;;;;5.53;4.12;;;;;;;22.50;100.00;98928.23;1771256;81;22067;-65
2021/07/07 01:46:00;;;;;;;7.42;4.80;;;;;;;22.49;100.00;98928.32;1765874;81;21466;-64
2021/07/07 01:48:29;;;;;;;5.05;4.22;;;;;;;22.46;100.00;98930.71;1770423;80;21513;-64
2021/07/07 01:51:00;;;;;;;5.05;3.77;;;;;;;22.46;100.00;98931.19;1763702;80;21438;-64
2021/07/07 01:53:29;;;;;;;6.08;4.62;;;;;;;22.46;100.00;98930.71;1771156;81;20955;-64
2021/07/07 01:55:58;;;;;;;6.17;4.50;;;;;;;22.45;100.00;98938.38;1753458;81;21160;-64
2021/07/07 01:58:27;;;;;;;7.17;5.10;;;;;;;22.42;100.00;98933.19;1734947;81;21474;-65
2021/07/07 02:00:56;;;;;;;6.10;5.22;;;;;;;22.41;100.00;98938.17;1746504;81;21486;-65
2021/07/07 02:03:29;;;;;;;7.08;4.83;;;;;;;22.39;100.00;98937.39;1745822;81;20944;-64
2021/07/07 02:05:56;;;;;;;5.55;4.08;;;;;;;22.38;100.00;98938.35;1734547;82;21495;-64
2021/07/07 02:08:26;;;;;;;4.80;4.37;;;;;;;22.37;100.00;98939.30;1731342;81;21167;-64
2021/07/07 02:10:58;;;;;;;6.03;4.53;;;;;;;22.35;100.00;98939.00;1751842;81;21451;-64
2021/07/07 02:13:30;;;;;;;8.48;4.92;;;;;;;22.32;100.00;98938.70;1747994;81;21375;-65
2021/07/07 02:16:03;;;;;;;6.03;4.30;;;;;;;22.30;100.00;98946.85;1744849;82;21474;-64
2021/07/07 02:18:33;;;;;;;5.60;4.23;;;;;;;22.29;100.00;98949.63;1730615;82;21420;-65
2021/07/07 02:21:03;;;;;;;5.10;4.42;;;;;;;22.28;100.00;98950.10;1730545;82;21404;-65
2021/07/07 02:23:32;;;;;;;6.80;4.80;;;;;;;22.27;100.00;98957.77;1730388;82;21417;-64
2021/07/07 02:26:02;;;;;;;5.60;5.08;;;;;;;22.26;100.00;98960.55;1775481;80;21454;-64
2021/07/07 02:28:34;;;;;;;7.72;4.65;;;;;;;22.23;100.00;98958.91;1759394;80;21395;-64
2021/07/07 02:31:04;;;;;;;5.37;4.47;;;;;;;22.23;100.00;98968.31;1757846;81;21481;-64
2021/07/07 02:33:35;;;;;;;6.53;4.15;;;;;;;22.24;100.00;98970.52;1760439;81;21356;-64
2021/07/07 02:36:05;;;;;;;7.20;5.00;;;;;;;22.23;100.00;98972.34;1760657;81;20862;-64
2021/07/07 02:38:34;;;;;;;5.60;4.83;;;;;;;22.23;100.00;98975.47;1761003;81;21433;-64
2021/07/07 02:41:05;;;;;;;5.03;4.50;;;;;;;22.21;100.00;98972.00;1760423;81;21389;-64
2021/07/07 02:43:34;;;;;;;6.70;4.67;;;;;;;22.21;100.00;98974.69;1760699;81;20906;-65
2021/07/07 02:46:05;;;;;;;10.15;4.87;;;;;;;22.22;100.00;98977.77;1760912;81;21410;-65
2021/07/07 02:48:34;;;;;;;6.65;4.90;;;;;;;22.21;100.00;98978.24;1755969;81;20860;-65
2021/07/07 02:51:03;;;;;;;9.53;4.95;;;;;;;22.21;100.00;98977.38;1753454;81;20901;-65
2021/07/07 02:53:34;;;;;;;9.10;5.42;;;;;;;22.21;100.00;98981.41;1753643;81;20895;-66
2021/07/07 02:56:04;;;;;;;5.45;4.78;;;;;;;22.22;100.00;98984.48;1760297;81;20937;-64
2021/07/07 02:58:33;;;;;;;7.67;4.85;;;;;;;22.21;100.00;98983.61;1760743;81;21092;-65
2021/07/07 03:01:02;;;;;;;9.30;4.85;;;;;;;22.22;100.00;98987.17;1749164;81;21421;-65
2021/07/07 03:03:30;;;;;;;10.03;5.17;;;;;;;22.23;100.00;98985.77;1736373;81;21459;-66
2021/07/07 03:06:00;;;;;;;9.85;4.67;;;;;;;22.24;100.00;98990.67;1760274;81;20852;-65
2021/07/07 03:08:31;;;;;;;8.70;5.30;;;;;;;22.25;100.00;98989.23;1760325;81;20907;-65
2021/07/07 03:11:02;;;;;;;6.55;5.78;;;;;;;22.26;100.00;98985.60;1760119;81;21809;-65
2021/07/07 03:13:31;;;;;;;14.43;7.00;;;;;;;22.27;100.00;98990.50;1759845;81;21473;-66
2021/07/07 03:16:00;;;;;;;11.78;7.17;;;;;;;22.29;100.00;98993.48;1759891;81;21473;-65
2021/07/07 03:18:29;;;;;;;14.13;9.28;;;;;;;22.30;100.00;98993.02;1736292;81;20979;-65
2021/07/07 03:20:58;;;;;;;10.68;7.20;;;;;;;22.33;100.00;99000.03;1760362;81;20884;-66
2021/07/07 03:23:26;;;;;;;18.73;5.92;;;;;;;22.34;100.00;98995.05;1760713;81;21085;-66
2021/07/07 03:25:55;;;;;;;9.95;5.70;;;;;;;22.33;100.00;98997.34;1760388;81;20925;-66
2021/07/07 03:28:24;;;;;;;7.70;5.42;;;;;;;22.35;100.00;99004.37;1761078;81;20870;-67
2021/07/07 03:30:53;;;;;;;7.90;6.08;;;;;;;22.38;100.00;99004.20;1760895;81;20954;-65
2021/07/07 03:33:21;;;;;;;8.35;6.15;;;;;;;22.42;100.00;99003.54;1732778;81;20915;-65
2021/07/07 03:35:50;;;;;;;10.85;5.83;;;;;;;22.43;100.00;98999.42;1736675;81;21415;-65
2021/07/07 03:38:18;;;;;;;8.45;6.47;;;;;;;22.46;100.00;99009.13;1749180;82;21379;-65
2021/07/07 03:40:48;;;;;;;11.03;7.00;;;;;;;22.47;100.00;99008.17;1749360;82;21510;-65
2021/07/07 03:43:16;;;;;;;11.63;7.17;;;;;;;22.49;100.00;99007.61;1758030;81;20922;-66
2021/07/07 03:45:44;;;;;;;8.33;6.72;;;;;;;22.51;100.00;99005.70;1761209;81;21476;-63
2021/07/07 03:48:14;;;;;;;8.58;6.00;;;;;;;22.54;100.00;99010.91;1758111;81;21580;-64
2021/07/07 03:50:41;;;;;;;10.20;5.97;;;;;;;22.56;100.00;99011.20;1748597;82;20861;-63
2021/07/07 03:53:09;;;;;;;8.88;5.62;;;;;;;22.58;100.00;99017.36;1745824;82;21414;-64
2021/07/07 03:55:36;;;;;;;8.15;6.00;;;;;;;22.61;100.00;99019.01;1746033;82;21463;-63
2021/07/07 03:58:04;;;;;;;7.25;5.47;;;;;;;22.62;100.00;99014.89;1745799;82;21458;-63
2021/07/07 04:00:32;;;;;;;10.18;5.47;;;;;;;22.66;100.00;99011.55;1744737;81;21081;-65
2021/07/07 04:02:59;;;;;;;9.05;5.50;;;;;;;22.72;100.00;99012.57;1743104;81;20892;-64
2021/07/07 04:05:29;;;;;;;7.87;5.83;;;;;;;22.77;100.00;99016.34;1741569;81;21019;-64
2021/07/07 04:07:56;;;;;;;9.10;6.30;;;;;;;22.81;100.00;99012.55;1730785;82;20914;-65
2021/07/07 04:10:24;;;;;;;8.18;5.83;;;;;;;22.86;100.00;99012.66;1747236;81;20920;-65
2021/07/07 04:12:52;;;;;;;10.35;6.00;;;;;;;22.90;100.00;99011.53;1755990;81;21466;-65
2021/07/07 04:15:20;;;;;;;7.72;5.70;;;;;;;22.94;100.00;99006.84;1745820;82;20888;-65
2021/07/07 04:17:48;;;;;;;10.05;6.78;;;;;;;22.99;100.00;99010.13;1745933;82;21530;-64
2021/07/07 04:20:17;;;;;;;9.48;5.62;;;;;;;23.01;100.00;99010.03;1745745;81;20932;-64
2021/07/07 04:22:44;;;;;;;6.17;5.58;;;;;;;23.01;100.00;99001.96;1743157;82;20911;-65
2021/07/07 04:25:14;;;;;;;6.37;5.78;;;;;;;23.03;100.00;99001.39;1751843;81;21446;-65
2021/07/07 04:27:42;;;;;;;6.35;5.45;;;;;;;23.06;100.00;98998.04;1760715;81;20890;-65
2021/07/07 04:30:14;;;;;;;9.43;5.67;;;;;;;23.09;100.00;98998.34;1761005;81;21417;-65
2021/07/07 04:32:41;;;;;;;5.70;5.20;;;;;;;23.12;100.00;99008.44;1745278;81;20884;-65
2021/07/07 04:35:10;;;;;;;8.65;6.25;;;;;;;23.13;100.00;99007.48;1743397;82;20959;-64
2021/07/07 04:37:38;;;;;;;8.53;5.80;;;;;;;23.17;100.00;99016.23;1743152;82;21095;-64
2021/07/07 04:40:08;;;;;;;6.33;5.70;;;;;;;23.24;100.00;99008.22;1742994;82;21463;-65
2021/07/07 04:42:35;;;;;;;7.08;5.55;;;;;;;23.31;100.00;99019.48;1743593;82;20931;-65
2021/07/07 04:45:06;;;;;;;10.10;5.58;;;;;;;23.37;100.00;99013.72;1743235;82;21447;-64
2021/07/07 04:47:35;;;;;;;8.55;5.60;;;;;;;23.42;100.00;99018.34;1743582;81;20935;-64
2021/07/07 04:50:05;;;;;;;6.70;5.55;;;;;;;23.45;100.00;99019.03;1743082;82;21107;-64
2021/07/07 04:52:33;;;;;;;9.38;6.05;;;;;;;23.52;100.00;99024.91;1750245;81;20960;-65
2021/07/07 04:55:01;;;;;;;5.08;4.58;;;;;;;23.59;100.00;99022.25;1761098;81;20869;-64
2021/07/07 04:57:28;;;;;;;8.58;5.62;;;;;;;23.69;100.00;99027.98;1761392;81;20896;-64
2021/07/07 04:59:56;;;;;;;7.05;5.30;;;;;;;23.76;100.00;99030.67;1759842;81;21506;-64
2021/07/07 05:02:25;;;;;;;5.87;5.35;;;;;;;23.82;100.00;99025.77;1760253;81;20915;-63
2021/07/07 05:04:54;;;;;;;5.40;4.90;;;;;;;23.92;100.00;99033.28;1760062;81;20971;-63
2021/07/07 05:07:23;;;;;;;5.78;4.87;;;;;;;23.98;100.00;99029.72;1760527;81;20951;-63
2021/07/07 05:09:51;;;;;;;6.25;5.00;;;;;;;24.09;100.00;99037.99;1759603;81;20939;-62
2021/07/07 05:12:19;;;;;;;12.98;5.00;;;;;;;24.20;100.00;99033.30;1752917;81;20952;-62
2021/07/07 05:14:47;;;;;;;5.03;4.53;;;;;;;24.30;100.00;99038.52;1736703;81;21086;-64
2021/07/07 05:17:15;;;;;;;6.58;5.15;;;;;;;24.42;100.00;99038.22;1781646;79;20914;-63
2021/07/07 05:19:42;;;;;;;6.25;4.33;;;;;;;24.49;100.00;99033.67;1764736;81;20899;-64
2021/07/07 05:22:09;;;;;;;4.22;3.80;;;;;;;24.61;100.00;99037.44;1733126;82;20935;-64
2021/07/07 05:24:38;;;;;;;5.22;4.37;;;;;;;24.72;100.00;99037.59;1764860;81;21497;-63
2021/07/07 05:27:05;;;;;;;9.90;4.50;;;;;;;24.81;100.00;99034.78;1736771;82;21104;-64
2021/07/07 05:29:33;;;;;;;6.42;4.15;;;;;;;24.90;100.00;99036.86;1736438;81;20867;-63
2021/07/07 05:32:00;;;;;;;4.78;3.95;;;;;;;24.99;100.00;99040.33;1796792;79;21403;-63
2021/07/07 05:34:27;;;;;;;4.35;3.95;;;;;;;25.08;100.00;99038.39;1793060;80;20911;-64
2021/07/07 05:36:56;;;;;;;4.72;3.87;;;;;;;25.16;100.00;99037.02;1755763;80;21041;-63
2021/07/07 05:39:24;;;;;;;5.35;3.50;;;;;;;25.24;100.00;99048.16;1768896;81;21073;-63
2021/07/07 05:41:51;;;;;;;6.92;3.90;;;;;;;25.32;100.00;99045.31;1757440;81;20890;-63
2021/07/07 05:44:18;;;;;;;5.70;4.15;;;;;;;25.38;100.00;99046.25;1768842;81;20888;-63
2021/07/07 05:46:45;;;;;;;4.83;3.72;;;;;;;25.42;100.00;99047.77;1721087;81;20951;-62
2021/07/07 05:49:13;;;;;;;15.05;5.05;;;;;;;25.47;100.00;99046.09;1736679;81;20936;-64
2021/07/07 05:51:40;;;;;;;5.65;4.10;;;;;;;25.52;100.00;99042.59;1759805;81;21461;-64
2021/07/07 05:54:08;;;;;;;6.03;4.05;;;;;;;25.55;100.00;99036.15;1733343;81;21402;-64
2021/07/07 05:56:37;;;;;;;6.22;3.60;;;;;;;25.60;100.00;99035.34;1764408;81;20954;-63
2021/07/07 05:59:05;;;;;;;5.12;3.87;;;;;;;25.67;100.00;99040.25;1749680;81;20907;-63
2021/07/07 06:01:33;;;;;;;6.22;3.92;;;;;;;25.76;100.00;99042.80;1765037;81;20987;-63
2021/07/07 06:04:01;;;;;;;5.35;4.28;;;;;;;25.83;100.00;99041.39;1741964;81;21791;-63
2021/07/07 06:06:28;;;;;;;6.87;4.20;;;;;;;25.90;100.00;99046.73;1763632;80;21067;-63
2021/07/07 06:08:56;;;;;;;4.85;4.25;;;;;;;26.00;100.00;99048.30;1739115;82;20892;-63
2021/07/07 06:11:25;;;;;;;16.10;4.75;;;;;;;26.11;100.00;99051.62;1739762;81;20957;-62
2021/07/07 06:13:52;;;;;;;6.42;4.08;;;;;;;26.18;100.00;99051.08;1755382;81;20867;-63
2021/07/07 06:16:20;;;;;;;8.28;4.83;;;;;;;26.29;100.00;99048.47;1820820;78;21812;-62
2021/07/07 06:18:48;;;;;;;5.87;4.85;;;;;;;26.41;100.00;99051.29;1819757;78;20899;-63
2021/07/07 06:21:15;;;;;;;5.92;5.25;;;;;;;26.51;100.00;99054.59;1813173;78;20909;-62
2021/07/07 06:23:43;;;;;;;9.45;4.97;;;;;;;26.63;100.00;99054.19;1758142;81;20903;-63
2021/07/07 06:26:10;;;;;;;6.15;5.05;;;;;;;26.73;100.00;99048.96;1751265;81;21470;-63
2021/07/07 06:28:38;;;;;;;7.37;5.03;;;;;;;26.83;100.00;99048.66;1755804;81;21097;-62
2021/07/07 06:31:07;;;;;;;9.55;5.45;;;;;;;26.87;100.00;99053.72;1746167;81;20899;-63
2021/07/07 06:33:34;;;;;;;5.47;4.87;;;;;;;26.89;100.00;99049.55;1760421;80;21448;-63
2021/07/07 06:36:02;;;;;;;7.50;5.17;;;;;;;26.91;100.00;99055.71;1771314;80;20998;-63
2021/07/07 06:38:32;;;;;;;6.10;4.37;;;;;;;26.94;100.00;99055.48;1729463;82;21513;-63
2021/07/07 06:41:00;;;;;;;6.75;4.70;;;;;;;26.91;100.00;99048.95;1759766;81;21082;-63
2021/07/07 06:43:27;;;;;;;7.33;5.40;;;;;;;26.87;100.00;99059.62;1727724;82;20939;-63
2021/07/07 06:45:55;;;;;;;5.78;5.22;;;;;;;26.83;100.00;99062.19;1728052;82;20901;-63
2021/07/07 06:48:22;;;;;;;5.80;5.00;;;;;;;26.78;100.00;99060.31;1750465;81;20903;-61
2021/07/07 06:50:50;;;;;;;8.18;5.37;;;;;;;26.73;100.00;99057.94;1753572;81;20949;-62
2021/07/07 06:53:18;;;;;;;5.72;5.08;;;;;;;26.71;100.00;99050.42;1746842;81;21900;-65
2021/07/07 06:55:45;;;;;;;5.17;4.47;;;;;;;26.70;100.00;99058.17;1745478;82;20908;-65
2021/07/07 06:58:14;;;;;;;6.37;5.47;;;;;;;26.73;100.00;99058.43;1751114;81;21422;-65
2021/07/07 07:00:41;;;;;;;10.30;5.22;;;;;;;26.75;100.00;99060.53;1753846;81;20949;-65
2021/07/07 07:03:09;;;;;;;6.62;5.45;;;;;;;26.77;100.00;99059.94;1760117;81;21387;-66
2021/07/07 07:05:36;;;;;;;5.40;4.92;;;;;;;26.83;100.00;99058.13;1758371;81;21087;-65
2021/07/07 07:08:04;;;;;;;5.60;5.10;;;;;;;26.90;100.00;99059.39;1759684;81;21057;-65
2021/07/07 07:10:32;;;;;;;6.10;5.45;;;;;;;27.01;100.00;99068.13;1754709;81;20982;-65
2021/07/07 07:13:00;;;;;;;9.70;5.62;;;;;;;27.09;100.00;99069.29;1732179;81;20949;-65
2021/07/07 07:15:27;;;;;;;11.45;5.15;;;;;;;27.16;100.00;99068.33;1725724;81;21466;-65
2021/07/07 07:17:55;;;;;;;6.72;5.05;;;;;;;27.23;100.00;99070.46;1736841;82;21099;-66
2021/07/07 07:20:27;;;;;;;7.90;5.45;;;;;;;27.32;100.00;99068.03;1725619;82;20871;-66
2021/07/07 07:22:51;;;;;;;5.83;5.15;;;;;;;27.37;100.00;99065.34;1742943;82;20887;-66
2021/07/07 07:25:19;;;;;;;5.75;5.15;;;;;;;27.45;100.00;99070.21;1748417;82;20899;-67
2021/07/07 07:27:47;;;;;;;42.27;6.20;;;;;;;27.54;100.00;99073.56;1748509;82;20864;-67
2021/07/07 07:30:15;;;;;;;6.87;5.00;;;;;;;27.65;100.00;99063.28;1741291;81;21107;-66
2021/07/07 07:32:44;;;;;;;5.00;4.50;;;;;;;27.76;100.00;99072.80;1731824;82;21011;-66
2021/07/07 07:35:13;;;;;;;11.88;5.45;;;;;;;27.88;100.00;99071.34;1760861;81;20943;-65
2021/07/07 07:38:03;;;;;;;6.60;4.35;;;;;;;28.02;100.00;99065.36;1746010;81;20948;-65
2021/07/07 07:40:10;;;;;;;4.75;4.30;;;;;;;28.13;100.00;99066.73;1754051;81;20946;-59
2021/07/07 07:42:43;;;;;;;9.25;4.37;;;;;;;28.19;100.00;99059.45;1737066;81;21947;-59
2021/07/07 07:45:12;;;;;;;9.60;3.90;;;;;;;28.27;100.00;99064.30;1788699;80;21465;-59
2021/07/07 07:47:41;;;;;;;8.05;4.30;;;;;;;28.28;100.00;99061.95;1788474;79;20867;-56
2021/07/07 07:50:11;;;;;;;8.15;4.00;;;;;;;28.27;100.00;99062.45;1788370;80;20957;-63
2021/07/07 07:52:40;;;;;;;8.30;3.90;;;;;;;28.25;100.00;99062.20;1788495;78;21497;-62
2021/07/07 07:55:08;;;;;;;11.38;4.55;;;;;;;28.24;100.00;99061.83;1780933;80;21048;-63
2021/07/07 07:57:37;;;;;;;22.07;5.40;;;;;;;28.25;100.00;99063.06;1776695;80;20848;-66
2021/07/07 08:00:07;;;;;;;7.80;4.10;;;;;;;28.23;100.00;99067.72;1764218;81;21474;-65
2021/07/07 08:02:36;;;;;;;7.30;3.83;;;;;;;28.24;100.00;99066.77;1746520;82;20907;-65
2021/07/07 08:05:04;;;;;;;15.25;4.40;;;;;;;28.21;100.00;99073.27;1764083;81;20957;-65
2021/07/07 08:07:32;;;;;;;5.12;3.37;;;;;;;28.18;100.00;99081.65;1747844;82;21088;-66
2021/07/07 08:10:00;;;;;;;5.42;3.60;;;;;;;28.18;100.00;99076.22;1761777;81;21473;-65
2021/07/07 08:12:27;;;;;;;5.45;3.47;;;;;;;28.24;100.00;99082.17;1745113;80;20926;-65
2021/07/07 08:14:55;;;;;;;9.13;3.40;;;;;;;28.31;100.00;99082.92;1762329;80;20898;-65
2021/07/07 08:17:23;;;;;;;6.55;3.27;;;;;;;28.38;100.00;99091.43;1763638;80;20914;-66
2021/07/07 08:19:50;;;;;;;4.75;3.08;;;;;;;28.38;100.00;99092.78;1757973;81;21426;-67
2021/07/07 08:22:18;;;;;;;6.00;3.08;;;;;;;28.37;100.00;99093.28;1768743;80;20849;-65
2021/07/07 08:24:46;;;;;;;3.65;3.25;;;;;;;28.31;100.00;99091.55;1742679;81;20949;-65
2021/07/07 08:27:13;;;;;;;4.97;3.62;;;;;;;28.32;100.00;99094.63;1741779;81;20915;-65
2021/07/07 08:29:40;;;;;;;6.50;3.42;;;;;;;28.37;100.00;99095.99;1741580;81;20879;-65
2021/07/07 08:32:08;;;;;;;4.90;3.85;;;;;;;28.45;100.00;99092.20;1741839;82;21738;-67
2021/07/07 08:34:35;;;;;;;3.67;3.37;;;;;;;28.57;100.00;99097.62;1741500;81;20911;-65
2021/07/07 08:37:03;;;;;;;8.03;3.65;;;;;;;28.65;100.00;99096.02;1741864;81;20905;-65
2021/07/07 08:39:31;;;;;;;4.35;3.10;;;;;;;28.74;100.00;99093.91;1741510;81;20934;-65
2021/07/07 08:41:58;;;;;;;4.10;3.08;;;;;;;28.87;100.00;99097.03;1747656;81;20924;-65
2021/07/07 08:44:25;;;;;;;6.50;2.95;;;;;;;28.96;100.00;99099.86;1758605;80;21161;-66
2021/07/07 08:46:53;;;;;;;6.80;3.12;;;;;;;29.06;100.00;99095.88;1764440;81;20923;-65
2021/07/07 08:49:21;;;;;;;44.45;5.72;;;;;;;29.15;100.00;99101.91;1733190;81;20896;-64
2021/07/07 08:51:49;;;;;;;5.80;2.90;;;;;;;29.20;96.22;99103.74;1765115;80;20930;-64
2021/07/07 08:54:19;;;;;;;40.10;5.60;;;;;;;29.26;97.93;99101.01;1733140;81;21462;-65
2021/07/07 08:56:48;;;;;;;11.75;3.12;;;;;;;29.32;98.35;99101.36;1763939;80;21083;-66
2021/07/07 08:59:17;;;;;;;4.17;2.98;;;;;;;29.40;99.26;99107.53;1756639;80;20991;-66
2021/07/07 09:02:10;;;;;;;8.90;2.83;;;;;;;29.49;97.78;99108.64;1763065;80;20925;-65
2021/07/07 09:04:43;;;;;;;3.83;2.77;;;;;;;29.53;95.56;99112.33;1765771;80;20916;-66
2021/07/07 09:07:21;;;;;;;7.42;2.50;;;;;;;29.56;93.59;99104.41;1759947;80;20862;-69
2021/07/07 09:09:51;;;;;;;18.87;2.67;;;;;;;29.59;91.18;99115.03;1741473;81;21096;-67
2021/07/07 09:12:34;;;;;;;6.42;2.27;;;;;;;29.61;87.14;99116.62;1713648;81;20981;-67
2021/07/07 09:15:08;;;;;;;12.05;1.90;;;;;;;29.60;83.28;99116.25;1771592;80;20930;-64
2021/07/07 09:17:43;;;;;;;4.80;2.05;;;;;;;29.59;80.76;99110.45;1780938;78;21395;-65
2021/07/07 09:20:36;;;;;;;4.25;1.92;;;;;;;29.61;82.11;99113.04;1820993;78;20923;-63
2021/07/07 09:23:26;;;;;;;5.40;2.27;;;;;;;29.62;80.09;99120.20;1752416;81;21146;-64
2021/07/07 09:25:56;;;;;;;12.25;2.27;;;;;;;29.61;81.10;99126.13;1698934;81;21393;-65
2021/07/07 09:28:38;;;;;;;6.75;2.20;;;;;;;29.62;81.84;99121.56;1756297;81;21458;-62
2021/07/07 09:31:34;;;;;;;142.17;12.10;;;;;;;29.59;82.93;99121.82;1764122;81;20881;-63
2021/07/07 09:34:17;;;;;;;7.92;2.35;;;;;;;29.63;85.15;99117.84;1780014;80;20903;-63
2021/07/07 09:36:47;;;;;;;12.90;2.30;;;;;;;29.71;84.85;99132.52;1756678;81;21107;-65
2021/07/07 09:39:15;;;;;;;18.55;3.00;;;;;;;29.72;77.85;99128.80;1761447;80;20855;-63
2021/07/07 09:41:43;;;;;;;8.53;2.42;;;;;;;29.71;76.74;99129.80;1762379;80;21365;-63
2021/07/07 09:44:10;;;;;;;2.75;1.82;;;;;;;29.70;73.39;99134.00;1762618;81;20922;-64
2021/07/07 09:46:40;;;;;;;4.20;1.47;;;;;;;29.70;74.08;99132.64;1757480;81;20922;-64
2021/07/07 09:49:07;;;;;;;6.83;1.60;;;;;;;29.73;73.02;99132.38;1726601;82;21761;-65
2021/07/07 09:51:35;;;;;;;3.08;1.77;;;;;;;29.73;73.07;99137.82;1726364;82;21434;-64
2021/07/07 09:54:05;;;;;;;15.32;2.67;;;;;;;29.70;74.85;99136.22;1745694;81;20890;-63
2021/07/07 09:56:34;;;;;;;3.02;1.77;;;;;;;29.73;78.12;99140.05;1758497;80;21420;-64
2021/07/07 09:59:02;;;;;;;22.48;3.20;;;;;;;29.79;78.52;99144.09;1756019;80;20899;-64
2021/07/07 10:01:33;;;;;;;6.97;2.20;;;;;;;29.84;81.06;99150.53;1748363;81;21421;-65
2021/07/07 10:04:01;;;;;;;12.23;2.65;;;;;;;29.89;81.27;99151.86;1754954;80;20921;-65
2021/07/07 10:06:29;;;;;;;3.55;2.02;;;;;;;29.95;80.90;99151.83;1757247;80;20935;-65
2021/07/07 10:09:01;;;;;;;8.43;1.90;;;;;;;29.96;82.86;99153.06;1715679;81;21433;-67
2021/07/07 10:11:29;;;;;;;6.40;1.90;;;;;;;29.99;82.77;99153.30;1754800;81;20976;-64
2021/07/07 10:13:57;;;;;;;52.43;3.20;;;;;;;30.01;83.33;99149.45;1745109;81;21089;-63
2021/07/07 10:16:25;;;;;;;6.35;2.00;;;;;;;30.03;88.03;99155.65;1715885;82;20953;-66
2021/07/07 10:18:54;;;;;;;1.67;1.57;;;;;;;30.03;86.80;99158.38;1690645;81;21402;-67
2021/07/07 10:21:22;;;;;;;3.40;1.90;;;;;;;30.06;89.62;99155.38;1730580;81;20989;-65
2021/07/07 10:23:51;;;;;;;6.20;2.37;;;;;;;30.02;87.29;99158.00;1719248;83;20993;-68
2021/07/07 10:26:19;;;;;;;18.80;4.03;;;;;;;29.96;89.11;99159.00;1729276;81;21086;-68
2021/07/07 10:28:47;;;;;;;20.12;4.80;;;;;;;29.93;90.64;99169.64;1725535;82;20930;-68
2021/07/07 10:31:14;;;;;;;13.93;4.10;;;;;;;29.94;91.99;99159.12;1748526;81;20854;-69
2021/07/07 10:33:42;;;;;;;9.98;2.70;;;;;;;29.99;93.98;99162.81;1749002;81;21417;-68
2021/07/07 10:36:23;;;;;;;3.42;1.85;;;;;;;30.06;94.33;99162.68;1748780;81;20942;-65
2021/07/07 10:38:59;;;;;;;4.37;1.90;;;;;;;30.11;94.99;99160.92;1734136;82;21096;-68
2021/07/07 10:41:48;;;;;;;4.37;1.80;;;;;;;30.11;91.06;99169.09;1718330;83;20906;-70
2021/07/07 10:44:40;;;;;;;14.90;2.22;;;;;;;30.03;90.51;99171.97;1718925;83;20905;-69
2021/07/07 10:47:17;;;;;;;6.00;1.67;;;;;;;29.93;90.25;99169.64;1742808;81;20915;-67
2021/07/07 10:49:51;;;;;;;5.22;2.10;;;;;;;29.78;92.24;99165.48;1728293;81;20918;-66
2021/07/07 10:52:39;;;;;;;9.18;2.10;;;;;;;29.71;92.41;99166.99;1726017;81;21065;-67
2021/07/07 10:55:09;;;;;;;16.95;3.55;;;;;;;29.61;94.27;99168.77;1724028;81;21018;-68
2021/07/07 10:57:38;;;;;;;6.35;2.77;;;;;;;29.51;95.36;99169.17;1717985;83;21489;-67
2021/07/07 11:00:12;;;;;;;4.90;1.90;;;;;;;29.40;95.39;99172.75;1733942;81;20855;-68
2021/07/07 11:02:39;;;;;;;3.70;1.90;;;;;;;29.28;98.15;99173.25;1745173;81;20863;-67
2021/07/07 11:05:08;;;;;;;20.10;4.30;;;;;;;29.19;97.89;99171.78;1724536;81;21111;-67
2021/07/07 11:07:39;;;;;;;8.35;2.83;;;;;;;29.10;97.92;99175.63;1720797;81;20874;-67
2021/07/07 11:10:17;;;;;;;4.85;1.62;;;;;;;29.03;99.46;99170.83;1779810;79;20952;-67
2021/07/07 11:12:54;;;;;;;3.72;1.90;;;;;;;29.00;100.00;99172.43;1779319;80;21429;-67
2021/07/07 11:15:23;;;;;;;8.10;1.85;;;;;;;28.99;100.00;99182.43;1767500;80;20941;-68
2021/07/07 11:18:01;;;;;;;1.92;1.82;;;;;;;29.01;100.00;99168.23;1769504;80;20883;-69
2021/07/07 11:20:30;;;;;;;2.98;1.67;;;;;;;29.06;100.00;99169.22;1778251;80;20947;-68
2021/07/07 11:23:08;;;;;;;2.95;1.60;;;;;;;29.18;100.00;99167.34;1753099;81;21465;-68
2021/07/07 11:25:39;;;;;;;8.28;2.42;;;;;;;29.33;100.00;99162.03;1748525;80;20999;-67
2021/07/07 11:28:16;;;;;;;8.85;2.67;;;;;;;29.51;100.00;99161.02;1768735;80;21403;-69
2021/07/07 11:30:43;;;;;;;20.55;3.12;;;;;;;29.62;100.00;99160.97;1762753;80;21147;-69
2021/07/07 11:33:10;;;;;;;17.40;3.92;;;;;;;29.66;99.57;99160.59;1765793;80;20850;-68
2021/07/07 11:35:40;;;;;;;19.82;3.83;;;;;;;29.72;97.93;99160.06;1779352;80;21414;-68